Time;durP1;ratioP1;P1;durP2;ratioP2;P2;SDS_P1;SDS_P2;PMS_P1;PMS_P2;Temp;Humidity;BMP_temperature;BMP_pressure;BME280_temperature;BME280_humidity;BME280_pressure;Samples;Min_cycle;Max_cycle;Signal;HPM_P1;HPM_P2
2021/11/28 00:01:03;;;;;;;12.98;5.18;;;3.80;88.90;;;;;;5051347;28;20059;-78
2021/11/28 00:03:29;;;;;;;11.93;4.70;;;3.80;88.90;;;;;;5052236;28;20041;-77
2021/11/28 00:06:00;;;;;;;13.73;4.97;;;3.80;88.80;;;;;;5051830;28;20053;-77
2021/11/28 00:11:27;;;;;;;10.32;3.40;;;3.90;88.80;;;;;;5051349;28;20484;-78
2021/11/28 00:16:27;;;;;;;10.25;3.60;;;3.80;88.70;;;;;;5052463;28;20374;-78
2021/11/28 00:18:53;;;;;;;12.73;3.30;;;3.80;88.60;;;;;;5050535;28;20029;-78
2021/11/28 00:21:20;;;;;;;8.30;3.58;;;3.80;88.60;;;;;;5052311;28;20025;-78
2021/11/28 00:23:45;;;;;;;11.68;3.60;;;3.80;88.70;;;;;;5050959;28;20017;-78
2021/11/28 00:26:12;;;;;;;11.15;3.25;;;3.70;88.70;;;;;;5050918;28;20079;-78
2021/11/28 00:28:39;;;;;;;8.50;2.92;;;3.70;88.80;;;;;;5034404;28;20032;-78
2021/11/28 00:31:05;;;;;;;8.15;3.13;;;3.60;88.80;;;;;;5034034;28;20029;-78
2021/11/28 00:33:31;;;;;;;15.82;3.90;;;3.60;88.80;;;;;;5051173;28;20025;-78
2021/11/28 00:35:57;;;;;;;12.07;3.38;;;3.50;88.80;;;;;;5053590;28;20388;-78
2021/11/28 00:38:22;;;;;;;12.43;3.65;;;3.50;89.00;;;;;;5053743;28;20025;-77
2021/11/28 00:40:48;;;;;;;9.65;3.25;;;3.40;88.90;;;;;;5034963;28;20409;-77
2021/11/28 00:43:16;;;;;;;17.27;3.30;;;3.40;89.10;;;;;;5051887;28;20047;-77
2021/11/28 00:45:42;;;;;;;15.07;3.67;;;3.40;89.30;;;;;;5051257;28;20029;-78
2021/11/28 00:48:07;;;;;;;11.07;3.75;;;3.40;89.50;;;;;;5051553;28;20384;-78
2021/11/28 00:50:44;;;;;;;10.63;3.20;;;3.40;89.50;;;;;;5052979;28;20033;-78
2021/11/28 00:53:12;;;;;;;9.05;3.13;;;3.40;89.50;;;;;;5052854;28;20025;-79
2021/11/28 00:55:38;;;;;;;10.23;3.45;;;3.40;89.50;;;;;;5050559;28;20032;-78
2021/11/28 00:58:04;;;;;;;8.48;3.08;;;3.40;89.60;;;;;;5049987;28;20040;-79
2021/11/28 01:00:30;;;;;;;11.48;3.22;;;3.50;89.80;;;;;;5050009;28;20032;-78
2021/11/28 01:02:56;;;;;;;11.25;3.10;;;3.50;89.90;;;;;;5050117;28;20049;-79
2021/11/28 01:05:22;;;;;;;8.02;2.63;;;3.50;89.90;;;;;;5047453;28;20081;-78
2021/11/28 01:07:48;;;;;;;14.65;3.05;;;3.60;90.00;;;;;;5050270;28;20029;-79
2021/11/28 01:10:14;;;;;;;6.18;2.75;;;3.60;90.00;;;;;;5050270;28;20051;-78
2021/11/28 01:12:41;;;;;;;9.52;2.58;;;3.70;90.00;;;;;;5051926;28;20415;-78
2021/11/28 01:15:07;;;;;;;8.77;2.78;;;3.80;90.00;;;;;;5050881;28;20032;-78
2021/11/28 01:17:34;;;;;;;8.18;2.90;;;3.80;90.00;;;;;;5050759;28;20017;-78
2021/11/28 01:20:02;;;;;;;7.40;3.05;;;3.80;90.00;;;;;;5052201;28;20033;-78
2021/11/28 01:22:28;;;;;;;9.85;3.50;;;3.80;90.00;;;;;;5052420;28;20032;-78
2021/11/28 01:24:53;;;;;;;7.53;3.10;;;3.80;90.00;;;;;;5052616;28;20028;-77
2021/11/28 01:27:20;;;;;;;5.90;2.47;;;3.90;90.00;;;;;;5051174;28;20090;-78
2021/11/28 01:29:45;;;;;;;;;;;3.80;90.00;;;;;;5053332;28;20022;-78
2021/11/28 01:32:12;;;;;;;8.60;2.90;;;3.80;90.00;;;;;;5052974;28;20244;-78
2021/11/28 01:34:39;;;;;;;10.85;3.25;;;3.80;89.90;;;;;;5051219;28;20067;-76
2021/11/28 01:37:05;;;;;;;;;;;3.80;90.00;;;;;;5052325;28;20082;-79
2021/11/28 01:39:32;;;;;;;9.00;3.17;;;3.80;90.00;;;;;;5051831;28;19912;-78
2021/11/28 01:41:58;;;;;;;9.63;3.28;;;3.80;90.00;;;;;;5051452;28;20060;-78
2021/11/28 01:44:24;;;;;;;13.63;3.40;;;3.70;90.00;;;;;;5050440;28;20163;-79
2021/11/28 01:46:50;;;;;;;10.18;2.85;;;3.70;90.10;;;;;;5054649;28;20368;-78
2021/11/28 01:49:16;;;;;;;8.90;3.40;;;3.70;90.10;;;;;;5055258;28;20021;-78
2021/11/28 01:51:42;;;;;;;9.73;3.38;;;3.70;90.10;;;;;;5038863;28;20059;-78
2021/11/28 01:54:14;;;;;;;8.75;2.67;;;3.70;90.20;;;;;;5038757;28;20037;-78
2021/11/28 01:56:42;;;;;;;8.90;3.03;;;3.70;90.20;;;;;;5038335;28;20043;-77
2021/11/28 01:59:09;;;;;;;9.18;2.50;;;3.70;90.20;;;;;;5054330;28;20496;-78
2021/11/28 02:01:35;;;;;;;9.98;2.85;;;3.70;90.30;;;;;;5056634;28;20053;-78
2021/11/28 02:04:02;;;;;;;8.88;2.50;;;3.70;90.30;;;;;;5057869;28;20028;-77
2021/11/28 02:06:28;;;;;;;10.63;3.33;;;3.70;90.30;;;;;;5037887;28;20063;-79
2021/11/28 02:08:55;;;;;;;7.78;2.88;;;3.70;90.30;;;;;;5055971;28;20043;-78
2021/11/28 02:11:21;;;;;;;7.53;2.90;;;3.70;90.40;;;;;;5055668;28;20053;-78
2021/11/28 02:13:46;;;;;;;10.45;3.05;;;3.80;90.40;;;;;;5038001;28;20440;-78
2021/11/28 02:16:13;;;;;;;7.90;2.75;;;3.80;90.40;;;;;;5055919;28;20486;-77
2021/11/28 02:18:40;;;;;;;6.70;2.50;;;3.70;90.40;;;;;;5056106;28;20036;-78
2021/11/28 02:21:07;;;;;;;;;;;3.80;90.40;;;;;;5037805;28;20064;-78
2021/11/28 02:23:33;;;;;;;10.40;3.17;;;3.80;90.40;;;;;;5055231;28;20007;-78
2021/11/28 02:26:01;;;;;;;9.75;2.92;;;3.80;90.30;;;;;;5055026;28;20392;-78
2021/11/28 02:28:28;;;;;;;8.40;2.80;;;3.80;90.30;;;;;;5053506;28;20036;-79
2021/11/28 02:30:54;;;;;;;12.35;3.00;;;3.80;90.40;;;;;;5054780;28;20468;-77
2021/11/28 02:33:20;;;;;;;8.10;2.65;;;3.80;90.40;;;;;;5054692;28;20033;-78
2021/11/28 02:35:46;;;;;;;8.32;2.80;;;3.70;90.40;;;;;;5054175;28;20029;-79
2021/11/28 02:38:12;;;;;;;10.57;2.97;;;3.70;90.50;;;;;;5020049;28;20029;-78
2021/11/28 02:40:39;;;;;;;;;;;3.80;90.50;;;;;;5054773;28;20040;-78
2021/11/28 02:43:04;;;;;;;7.40;2.40;;;3.80;90.60;;;;;;5035860;28;19920;-79
2021/11/28 02:45:32;;;;;;;13.00;3.03;;;3.80;90.50;;;;;;5054237;28;20029;-78
2021/11/28 02:48:00;;;;;;;9.38;2.80;;;3.80;90.50;;;;;;5053414;28;20029;-77
2021/11/28 02:50:26;;;;;;;9.57;2.58;;;3.90;90.60;;;;;;5053598;28;20084;-78
2021/11/28 02:52:54;;;;;;;6.72;2.38;;;3.90;90.60;;;;;;5053628;28;20029;-79
2021/11/28 02:55:27;;;;;;;13.40;2.72;;;3.90;90.60;;;;;;5053106;28;20056;-77
2021/11/28 02:57:55;;;;;;;12.85;2.72;;;3.90;90.70;;;;;;5052953;28;20035;-76
2021/11/28 03:00:23;;;;;;;10.77;2.88;;;4.00;90.70;;;;;;5053700;28;20028;-77
2021/11/28 03:02:48;;;;;;;7.47;2.45;;;4.00;90.80;;;;;;5020444;28;20455;-79
2021/11/28 03:05:14;;;;;;;7.80;2.17;;;4.00;90.80;;;;;;5053738;28;20074;-78
2021/11/28 03:07:40;;;;;;;6.07;2.08;;;4.10;90.80;;;;;;5054827;28;20447;-78
2021/11/28 03:10:28;;;;;;;5.65;2.38;;;4.10;90.80;;;;;;5054842;28;20029;-77
2021/11/28 03:12:55;;;;;;;9.30;2.42;;;4.10;90.80;;;;;;5053664;28;20437;-78
2021/11/28 03:15:22;;;;;;;9.65;2.22;;;4.10;90.80;;;;;;5037037;28;20111;-78
2021/11/28 03:17:48;;;;;;;7.45;2.75;;;4.10;90.80;;;;;;5055243;28;20029;-77
2021/11/28 03:20:15;;;;;;;10.07;2.33;;;4.20;90.90;;;;;;5037279;28;20033;-78
2021/11/28 03:22:49;;;;;;;7.10;2.30;;;4.20;90.90;;;;;;5054474;28;20428;-78
2021/11/28 03:25:18;;;;;;;4.75;2.15;;;4.20;90.90;;;;;;5053893;28;20021;-77
2021/11/28 03:27:44;;;;;;;7.75;2.17;;;4.20;90.90;;;;;;5052754;28;20547;-77
2021/11/28 03:30:13;;;;;;;;;;;4.20;91.00;;;;;;5054267;28;20024;-77
2021/11/28 03:32:40;;;;;;;8.98;2.15;;;4.20;91.00;;;;;;5052254;28;19905;-77
2021/11/28 03:35:06;;;;;;;;;;;4.10;90.90;;;;;;5036069;28;20112;-77
2021/11/28 03:37:32;;;;;;;6.35;2.00;;;4.10;91.00;;;;;;5052127;28;19913;-77
2021/11/28 03:39:58;;;;;;;8.10;2.70;;;4.10;90.90;;;;;;5035440;28;20383;-76
2021/11/28 03:42:24;;;;;;;5.15;1.90;;;4.10;91.00;;;;;;5052064;28;20069;-77
2021/11/28 03:44:50;;;;;;;10.13;3.42;;;4.10;91.10;;;;;;5035914;28;20551;-78
2021/11/28 03:47:17;;;;;;;9.23;2.08;;;4.10;91.10;;;;;;5052617;28;20381;-77
2021/11/28 03:49:43;;;;;;;6.03;2.20;;;4.20;91.20;;;;;;5035476;28;20025;-77
2021/11/28 03:52:09;;;;;;;7.95;2.15;;;4.20;91.20;;;;;;5051935;28;20037;-77
2021/11/28 03:54:35;;;;;;;8.32;2.17;;;4.20;91.20;;;;;;5053431;28;20025;-76
2021/11/28 03:57:01;;;;;;;7.05;2.22;;;4.20;91.20;;;;;;5035601;28;20036;-77
2021/11/28 03:59:28;;;;;;;6.47;1.80;;;4.20;91.30;;;;;;5053402;28;20056;-77
2021/11/28 04:01:54;;;;;;;7.07;2.47;;;4.30;91.30;;;;;;5053397;28;20116;-78
2021/11/28 04:04:20;;;;;;;9.75;1.45;;;4.30;91.30;;;;;;5052495;28;20048;-77
2021/11/28 04:06:45;;;;;;;7.68;2.00;;;4.30;91.30;;;;;;5051974;28;20503;-78
2021/11/28 04:09:12;;;;;;;8.43;2.30;;;4.30;91.40;;;;;;5051565;28;20078;-79
2021/11/28 04:11:38;;;;;;;6.43;1.98;;;4.30;91.40;;;;;;5034512;28;20033;-79
2021/11/28 04:14:04;;;;;;;5.28;1.98;;;4.40;91.50;;;;;;5052204;28;20029;-79
2021/11/28 04:16:31;;;;;;;11.68;2.35;;;4.30;91.50;;;;;;5035410;28;20494;-78
2021/11/28 04:18:56;;;;;;;6.82;1.55;;;4.40;91.50;;;;;;5051688;28;20039;-77
2021/11/28 04:21:22;;;;;;;9.10;2.35;;;4.40;91.50;;;;;;5035527;28;20380;-78
2021/11/28 04:23:49;;;;;;;5.22;2.20;;;4.30;91.50;;;;;;5052623;28;20033;-77
2021/11/28 04:26:15;;;;;;;5.97;2.40;;;4.40;91.50;;;;;;5053063;28;20384;-78
2021/11/28 04:28:41;;;;;;;7.60;1.90;;;4.40;91.60;;;;;;5053428;28;20021;-78
2021/11/28 04:31:07;;;;;;;7.35;2.20;;;4.40;91.60;;;;;;5053279;28;20039;-78
2021/11/28 04:33:33;;;;;;;8.18;1.85;;;4.40;91.60;;;;;;5053570;28;20021;-77
2021/11/28 04:35:59;;;;;;;4.00;1.55;;;4.40;91.70;;;;;;5053274;28;20104;-78
2021/11/28 04:38:25;;;;;;;4.95;1.48;;;4.40;91.70;;;;;;5053035;28;20044;-78
2021/11/28 04:40:50;;;;;;;7.97;1.88;;;4.40;91.70;;;;;;5051737;28;20402;-77
2021/11/28 04:43:16;;;;;;;8.00;1.92;;;4.40;91.80;;;;;;5053223;28;20391;-78
2021/11/28 04:45:42;;;;;;;9.88;1.50;;;4.40;91.80;;;;;;5052055;28;20439;-78
2021/11/28 04:48:08;;;;;;;8.32;1.70;;;4.50;91.90;;;;;;5053391;28;20033;-78
2021/11/28 04:50:34;;;;;;;4.10;1.38;;;4.50;91.90;;;;;;5051233;28;20124;-76
2021/11/28 04:53:01;;;;;;;6.75;1.42;;;4.50;91.90;;;;;;5052494;28;20496;-77
2021/11/28 04:55:26;;;;;;;4.57;1.40;;;4.50;92.00;;;;;;5051883;28;20529;-77
2021/11/28 04:57:52;;;;;;;7.18;1.75;;;4.50;92.00;;;;;;5051562;28;20115;-77
2021/11/28 05:00:22;;;;;;;5.88;1.13;;;4.60;92.10;;;;;;5051679;28;20487;-77
2021/11/28 05:02:48;;;;;;;5.43;1.55;;;4.60;92.10;;;;;;5053286;28;20207;-78
2021/11/28 05:05:14;;;;;;;6.90;1.48;;;4.60;92.10;;;;;;5053425;28;20539;-77
2021/11/28 05:07:40;;;;;;;4.60;1.20;;;4.60;92.20;;;;;;5053354;28;20029;-77
2021/11/28 05:10:06;;;;;;;5.05;0.90;;;4.60;92.20;;;;;;5052194;28;20039;-78
2021/11/28 05:12:32;;;;;;;;;;;4.60;92.20;;;;;;5051663;28;20040;-77
2021/11/28 05:14:58;;;;;;;3.00;1.08;;;4.60;92.30;;;;;;5051973;28;19908;-77
2021/11/28 05:17:24;;;;;;;6.97;1.50;;;4.60;92.30;;;;;;5052099;28;20444;-78
2021/11/28 05:19:50;;;;;;;5.55;1.38;;;4.60;92.30;;;;;;5051264;28;20476;-77
2021/11/28 05:22:16;;;;;;;6.68;1.42;;;4.60;92.30;;;;;;5055845;28;20032;-77
2021/11/28 05:24:43;;;;;;;4.63;1.65;;;4.60;92.40;;;;;;5038376;28;20033;-77
2021/11/28 05:27:09;;;;;;;8.52;1.90;;;4.60;92.40;;;;;;5021964;28;20047;-77
2021/11/28 05:29:35;;;;;;;6.78;1.85;;;4.60;92.40;;;;;;5056398;28;20024;-78
2021/11/28 05:32:02;;;;;;;3.90;1.45;;;4.60;92.40;;;;;;5055283;28;20029;-78
2021/11/28 05:34:28;;;;;;;7.75;1.98;;;4.60;92.50;;;;;;5021153;28;20136;-77
2021/11/28 05:36:54;;;;;;;3.83;1.23;;;4.60;92.50;;;;;;5055715;28;20100;-77
2021/11/28 05:39:19;;;;;;;7.43;1.70;;;4.60;92.60;;;;;;5056215;28;20533;-78
2021/11/28 05:41:45;;;;;;;15.57;2.40;;;4.60;92.60;;;;;;5037752;28;20484;-78
2021/11/28 05:44:11;;;;;;;10.60;2.38;;;4.60;92.60;;;;;;5055464;28;20087;-78
2021/11/28 05:46:37;;;;;;;5.43;1.58;;;4.60;92.70;;;;;;5038338;28;20480;-77
2021/11/28 05:49:03;;;;;;;5.18;1.42;;;4.60;92.70;;;;;;5038529;28;20057;-78
2021/11/28 05:51:29;;;;;;;4.47;1.63;;;4.70;92.70;;;;;;5054990;28;20033;-78
2021/11/28 05:53:55;;;;;;;7.28;1.67;;;4.70;92.70;;;;;;5037848;28;20043;-76
2021/11/28 05:56:21;;;;;;;5.10;2.08;;;4.70;92.80;;;;;;5021360;28;20036;-77
2021/11/28 05:58:46;;;;;;;11.32;1.60;;;4.70;92.80;;;;;;5053973;28;20025;-77
2021/11/28 06:01:12;;;;;;;8.07;2.42;;;4.80;92.80;;;;;;5054960;28;20033;-77
2021/11/28 06:03:38;;;;;;;9.18;2.10;;;4.80;92.80;;;;;;5054134;28;20144;-78
2021/11/28 06:06:04;;;;;;;3.50;1.50;;;4.80;92.80;;;;;;5035367;28;20057;-78
2021/11/28 06:08:30;;;;;;;10.00;2.22;;;4.80;92.80;;;;;;5054655;28;20035;-78
2021/11/28 06:10:55;;;;;;;9.35;2.20;;;4.90;92.80;;;;;;5053816;28;20086;-77
2021/11/28 06:13:22;;;;;;;7.38;1.67;;;4.90;92.80;;;;;;5054603;28;20036;-77
2021/11/28 06:15:47;;;;;;;;;;;4.90;92.80;;;;;;5053462;28;20033;-78
2021/11/28 06:18:13;;;;;;;8.07;1.88;;;4.90;92.80;;;;;;5036283;28;20263;-78
2021/11/28 06:20:39;;;;;;;4.70;1.75;;;4.90;92.90;;;;;;5054664;28;20059;-78
2021/11/28 06:23:05;;;;;;;6.22;2.22;;;5.00;92.80;;;;;;5055318;28;20112;-78
2021/11/28 06:25:31;;;;;;;10.68;2.30;;;5.00;92.80;;;;;;5053545;28;20067;-78
2021/11/28 06:27:57;;;;;;;9.52;2.42;;;5.00;92.80;;;;;;5036811;28;20068;-77
2021/11/28 06:30:23;;;;;;;9.50;2.33;;;5.00;92.80;;;;;;5054711;28;20021;-78
2021/11/28 06:32:49;;;;;;;9.02;2.58;;;5.00;92.90;;;;;;5052998;28;20392;-78
2021/11/28 06:35:15;;;;;;;17.33;2.45;;;5.00;92.90;;;;;;5054318;28;20530;-78
2021/11/28 06:37:41;;;;;;;10.52;2.60;;;5.00;92.90;;;;;;5052776;28;20033;-77
2021/11/28 06:40:08;;;;;;;7.82;1.80;;;5.00;93.00;;;;;;5052883;28;20031;-77
2021/11/28 06:42:33;;;;;;;8.05;2.05;;;5.00;93.00;;;;;;5054547;28;20391;-77
2021/11/28 06:44:59;;;;;;;7.10;1.75;;;4.90;93.00;;;;;;5036425;28;20029;-78
2021/11/28 06:47:25;;;;;;;5.75;1.50;;;4.90;93.10;;;;;;5036132;28;20061;-78
2021/11/28 06:49:51;;;;;;;5.32;1.63;;;4.90;93.10;;;;;;5054194;28;20056;-77
2021/11/28 06:52:17;;;;;;;7.47;1.83;;;4.90;93.10;;;;;;5052823;28;20486;-79
2021/11/28 06:54:42;;;;;;;7.07;2.03;;;4.90;93.20;;;;;;5052758;28;20099;-77
2021/11/28 06:57:08;;;;;;;4.78;1.70;;;4.90;93.20;;;;;;5052225;28;20082;-77
2021/11/28 06:59:36;;;;;;;7.35;2.17;;;4.90;93.20;;;;;;5053464;28;20029;-77
2021/11/28 07:02:02;;;;;;;6.88;1.90;;;4.90;93.20;;;;;;5051943;28;20055;-76
2021/11/28 07:04:28;;;;;;;;;;;4.90;93.30;;;;;;5053555;28;20556;-77
2021/11/28 07:06:54;;;;;;;10.68;2.15;;;4.90;93.30;;;;;;5052066;28;19916;-79
2021/11/28 07:09:20;;;;;;;10.90;2.22;;;4.90;93.20;;;;;;5035344;28;20472;-79
2021/11/28 07:11:45;;;;;;;11.10;2.13;;;5.00;93.20;;;;;;5052038;28;20324;-78
2021/11/28 07:14:11;;;;;;;14.38;2.78;;;5.00;93.20;;;;;;5051744;28;20021;-77
2021/11/28 07:16:37;;;;;;;7.70;2.10;;;5.00;93.20;;;;;;5034951;28;20036;-78
2021/11/28 07:19:03;;;;;;;9.75;2.10;;;5.00;93.30;;;;;;5035317;28;20028;-77
2021/11/28 07:21:29;;;;;;;7.90;2.25;;;5.00;93.30;;;;;;5053226;28;20395;-79
2021/11/28 07:23:54;;;;;;;7.85;2.60;;;5.00;93.30;;;;;;5053227;28;20029;-78
2021/11/28 07:26:20;;;;;;;7.60;2.08;;;5.00;93.30;;;;;;5053326;28;20106;-77
2021/11/28 07:28:47;;;;;;;5.20;1.63;;;4.90;93.30;;;;;;5035368;28;20033;-77
2021/11/28 07:31:13;;;;;;;8.27;2.33;;;4.90;93.40;;;;;;5051825;28;20033;-78
2021/11/28 07:33:39;;;;;;;6.13;1.88;;;4.90;93.40;;;;;;5052024;28;20379;-79
2021/11/28 07:36:07;;;;;;;5.43;2.10;;;4.90;93.40;;;;;;5035297;28;20375;-78
2021/11/28 07:38:34;;;;;;;10.90;2.63;;;4.90;93.40;;;;;;5053001;28;20055;-77
2021/11/28 07:41:00;;;;;;;11.07;2.90;;;4.90;93.40;;;;;;5052897;28;20041;-78
2021/11/28 07:43:27;;;;;;;8.73;2.63;;;4.80;93.40;;;;;;5052294;28;20033;-77
2021/11/28 07:45:53;;;;;;;;;;;4.80;93.50;;;;;;5053308;28;20384;-78
2021/11/28 07:48:19;;;;;;;5.57;2.30;;;4.80;93.50;;;;;;5051547;28;19915;-78
2021/11/28 07:50:45;;;;;;;8.15;2.50;;;4.70;93.50;;;;;;5052740;28;20033;-78
2021/11/28 07:53:10;;;;;;;7.07;1.90;;;4.70;93.50;;;;;;5051080;28;20033;-78
2021/11/28 07:55:36;;;;;;;12.50;2.50;;;4.70;93.60;;;;;;5052202;28;20041;-77
2021/11/28 07:58:03;;;;;;;10.95;2.17;;;4.70;93.60;;;;;;5051088;28;20069;-78
2021/11/28 08:00:29;;;;;;;8.52;2.15;;;4.70;93.60;;;;;;5052153;28;20029;-77
2021/11/28 08:02:55;;;;;;;11.15;2.60;;;4.60;93.60;;;;;;5050885;28;20032;-77
2021/11/28 08:05:21;;;;;;;5.82;1.92;;;4.60;93.70;;;;;;5050784;28;20195;-77
2021/11/28 08:07:46;;;;;;;4.25;1.63;;;4.60;93.70;;;;;;5034585;28;20403;-76
2021/11/28 08:10:14;;;;;;;11.02;2.55;;;4.60;93.70;;;;;;5053308;28;20156;-77
2021/11/28 08:12:40;;;;;;;7.45;1.80;;;4.60;93.70;;;;;;5050553;28;20387;-78
2021/11/28 08:15:10;;;;;;;24.92;2.60;;;4.70;93.80;;;;;;5051998;28;20022;-77
2021/11/28 08:17:38;;;;;;;11.57;2.22;;;4.60;94.00;;;;;;5050539;28;20454;-77
2021/11/28 08:20:08;;;;;;;7.00;2.22;;;4.70;93.90;;;;;;5034417;28;20118;-76
2021/11/28 08:22:35;;;;;;;7.53;2.78;;;4.70;93.90;;;;;;5050695;28;20035;-77
2021/11/28 08:25:00;;;;;;;;;;;4.70;93.90;;;;;;5052513;28;20079;-77
2021/11/28 08:27:26;;;;;;;7.97;1.85;;;4.70;93.90;;;;;;5050683;28;19944;-77
2021/11/28 08:29:53;;;;;;;6.30;1.60;;;4.80;93.90;;;;;;5050603;28;20490;-77
2021/11/28 08:32:19;;;;;;;9.75;2.33;;;4.80;93.90;;;;;;5033857;28;20083;-77
2021/11/28 08:34:45;;;;;;;4.05;1.38;;;4.80;94.00;;;;;;5050790;28;20063;-78
2021/11/28 08:37:11;;;;;;;9.82;2.17;;;4.80;94.00;;;;;;5034113;28;20033;-78
2021/11/28 08:39:37;;;;;;;8.18;2.10;;;4.80;94.00;;;;;;5050453;28;20032;-78
2021/11/28 08:42:07;;;;;;;6.05;2.25;;;4.80;94.00;;;;;;5051382;28;20037;-77
2021/11/28 08:44:33;;;;;;;4.20;1.50;;;4.80;94.00;;;;;;5050133;28;20549;-78
2021/11/28 08:46:59;;;;;;;7.55;1.35;;;4.80;94.00;;;;;;5051278;28;20025;-78
2021/11/28 08:49:25;;;;;;;6.13;1.88;;;4.80;94.10;;;;;;5050443;28;20033;-77
2021/11/28 08:51:51;;;;;;;8.82;2.08;;;4.90;94.10;;;;;;5050741;28;20017;-77
2021/11/28 08:54:17;;;;;;;3.85;1.55;;;4.90;94.10;;;;;;5050869;28;20060;-77
2021/11/28 08:56:44;;;;;;;6.55;1.77;;;4.90;94.10;;;;;;5050770;28;20032;-77
2021/11/28 08:59:10;;;;;;;5.28;1.50;;;4.90;94.10;;;;;;5050574;28;20070;-78
2021/11/28 09:01:37;;;;;;;6.03;2.08;;;4.90;94.10;;;;;;5051777;28;20071;-77
2021/11/28 09:04:04;;;;;;;11.07;2.17;;;4.90;94.10;;;;;;5050195;28;20520;-78
2021/11/28 09:06:30;;;;;;;9.55;2.08;;;4.90;94.10;;;;;;5051720;28;20060;-78
2021/11/28 09:08:56;;;;;;;8.80;2.13;;;4.90;94.10;;;;;;5051733;28;20025;-77
2021/11/28 09:11:22;;;;;;;13.52;2.45;;;4.90;94.20;;;;;;5051601;28;20487;-79
2021/11/28 09:13:47;;;;;;;8.00;1.95;;;4.90;94.20;;;;;;5033396;28;20079;-77
2021/11/28 09:16:13;;;;;;;8.82;1.83;;;4.90;94.20;;;;;;5051347;28;20104;-77
2021/11/28 09:21:09;;;;;;;6.97;2.85;;;5.00;94.20;;;;;;5050203;28;20029;-79
2021/11/28 09:26:19;;;;;;;6.55;2.05;;;5.10;94.30;;;;;;5051754;28;20036;-77
2021/11/28 09:28:45;;;;;;;6.50;2.00;;;5.10;94.30;;;;;;5050952;28;20025;-78
2021/11/28 09:31:11;;;;;;;6.03;1.77;;;5.10;94.30;;;;;;5051247;28;20360;-78
2021/11/28 09:33:41;;;;;;;6.97;2.00;;;5.20;94.30;;;;;;5051948;28;20112;-77
2021/11/28 09:36:08;;;;;;;9.55;2.20;;;5.20;94.30;;;;;;5051297;28;20021;-78
2021/11/28 09:38:34;;;;;;;6.40;1.92;;;5.20;94.30;;;;;;5050271;28;20465;-77
2021/11/28 09:41:08;;;;;;;7.05;1.65;;;5.20;94.30;;;;;;5051213;28;20033;-79
2021/11/28 09:43:35;;;;;;;7.50;2.05;;;5.20;94.30;;;;;;5051465;28;20036;-77
2021/11/28 09:46:05;;;;;;;7.20;1.70;;;5.20;94.30;;;;;;5050963;28;20081;-78
2021/11/28 09:48:34;;;;;;;7.78;2.00;;;5.20;94.30;;;;;;5050676;28;20025;-77
2021/11/28 09:51:02;;;;;;;6.78;2.08;;;5.30;94.30;;;;;;5049488;28;20029;-79
2021/11/28 09:53:29;;;;;;;8.15;2.15;;;5.30;94.30;;;;;;5049967;28;20036;-78
2021/11/28 09:55:56;;;;;;;5.82;1.83;;;5.30;94.40;;;;;;5050515;28;20021;-78
2021/11/28 09:58:22;;;;;;;7.47;1.52;;;5.40;94.40;;;;;;5049583;28;20040;-78
2021/11/28 10:00:48;;;;;;;5.60;2.13;;;5.40;94.40;;;;;;5049708;28;20399;-79
2021/11/28 10:03:13;;;;;;;9.20;1.65;;;5.40;94.40;;;;;;5050507;28;20033;-78
2021/11/28 10:05:41;;;;;;;6.60;1.75;;;5.50;94.40;;;;;;5014205;28;20100;-78
2021/11/28 10:08:08;;;;;;;7.88;1.92;;;5.40;94.40;;;;;;5052017;28;20029;-78
2021/11/28 10:10:34;;;;;;;5.47;1.75;;;5.40;94.40;;;;;;5052995;28;20040;-78
2021/11/28 10:13:00;;;;;;;;;;;5.50;94.50;;;;;;5054903;28;20025;-77
2021/11/28 10:15:29;;;;;;;6.45;1.55;;;5.50;94.60;;;;;;5053905;28;19904;-79
2021/11/28 10:17:54;;;;;;;7.28;1.77;;;5.50;94.50;;;;;;5052684;28;20408;-78
2021/11/28 10:20:22;;;;;;;8.02;1.83;;;5.60;94.50;;;;;;5054504;28;20039;-78
2021/11/28 10:22:49;;;;;;;4.55;1.60;;;5.60;94.60;;;;;;5052651;28;20064;-77
2021/11/28 10:25:22;;;;;;;6.15;2.15;;;5.70;94.60;;;;;;5035555;28;20033;-79
2021/11/28 10:27:52;;;;;;;4.95;1.67;;;5.70;94.60;;;;;;5053806;28;20033;-78
2021/11/28 10:30:43;;;;;;;7.20;1.98;;;5.80;94.60;;;;;;5036158;28;20124;-78
2021/11/28 10:33:15;;;;;;;12.05;1.45;;;5.80;94.60;;;;;;5050687;28;20029;-78
2021/11/28 10:36:02;;;;;;;9.32;1.85;;;5.90;94.50;;;;;;5052379;28;20029;-78
2021/11/28 10:38:40;;;;;;;6.40;2.15;;;5.90;94.60;;;;;;5052315;28;20037;-78
2021/11/28 10:41:22;;;;;;;5.32;1.70;;;6.00;94.60;;;;;;5052021;28;20139;-78
2021/11/28 10:43:48;;;;;;;3.97;1.80;;;6.00;94.60;;;;;;5052294;28;20043;-78
2021/11/28 10:46:30;;;;;;;7.38;1.85;;;6.10;94.50;;;;;;5054355;28;20029;-77
2021/11/28 10:49:05;;;;;;;6.57;1.45;;;6.10;94.60;;;;;;5052285;28;20171;-77
2021/11/28 10:51:32;;;;;;;9.82;1.77;;;6.10;94.60;;;;;;5053193;28;20052;-78
2021/11/28 10:53:57;;;;;;;5.13;1.55;;;6.20;94.60;;;;;;5035897;28;20021;-78
2021/11/28 10:56:23;;;;;;;6.55;1.77;;;6.20;94.50;;;;;;5052647;28;20079;-78
2021/11/28 10:58:49;;;;;;;5.88;1.98;;;6.20;94.60;;;;;;5052084;28;20033;-79
2021/11/28 11:01:15;;;;;;;6.93;1.50;;;6.20;94.60;;;;;;5053489;28;20041;-78
2021/11/28 11:03:48;;;;;;;6.57;1.63;;;6.20;94.60;;;;;;5053484;28;20036;-78
2021/11/28 11:06:25;;;;;;;5.40;1.70;;;6.20;94.60;;;;;;5052809;28;20048;-78
2021/11/28 11:09:21;;;;;;;8.93;2.25;;;6.20;94.60;;;;;;5051616;28;20439;-78
2021/11/28 11:11:46;;;;;;;4.80;1.80;;;6.20;94.60;;;;;;5051851;28;20477;-79
2021/11/28 11:14:13;;;;;;;7.40;2.15;;;6.30;94.60;;;;;;5052225;28;20032;-77
2021/11/28 11:16:45;;;;;;;11.38;2.05;;;6.30;94.70;;;;;;5052901;28;20021;-77
2021/11/28 11:19:23;;;;;;;9.68;2.05;;;6.30;94.70;;;;;;5051712;28;20098;-78
2021/11/28 11:22:11;;;;;;;4.00;1.70;;;6.40;94.70;;;;;;5053246;28;20472;-78
2021/11/28 11:24:40;;;;;;;7.78;2.67;;;6.50;94.80;;;;;;5051508;28;20112;-78
2021/11/28 11:27:15;;;;;;;8.48;2.33;;;6.60;94.70;;;;;;5051145;28;20025;-77
2021/11/28 11:29:53;;;;;;;5.65;1.88;;;6.70;94.90;;;;;;5053787;28;20110;-74
2021/11/28 11:32:39;;;;;;;4.75;1.83;;;6.80;94.70;;;;;;5053167;28;20028;-77
2021/11/28 11:35:09;;;;;;;7.65;2.00;;;6.90;94.60;;;;;;5052788;28;20025;-77
2021/11/28 11:37:37;;;;;;;11.35;2.67;;;6.90;94.50;;;;;;5051388;28;20032;-77
2021/11/28 11:40:09;;;;;;;5.78;1.83;;;7.00;94.60;;;;;;5050646;28;20025;-78
2021/11/28 11:42:39;;;;;;;3.83;1.40;;;7.00;94.60;;;;;;5051404;28;20367;-77
2021/11/28 11:45:07;;;;;;;4.32;1.60;;;7.00;94.40;;;;;;5051490;28;20029;-78
2021/11/28 11:47:33;;;;;;;8.52;1.92;;;7.00;94.40;;;;;;5034359;28;20037;-77
2021/11/28 11:49:59;;;;;;;5.93;2.13;;;7.00;94.50;;;;;;5051387;28;20087;-76
2021/11/28 11:52:26;;;;;;;6.88;1.35;;;7.00;94.50;;;;;;5033949;28;20033;-77
2021/11/28 11:54:59;;;;;;;5.40;2.20;;;7.10;94.60;;;;;;5051904;28;20035;-75
2021/11/28 11:57:55;;;;;;;3.70;1.33;;;7.10;94.50;;;;;;5050534;28;20041;-78
2021/11/28 12:00:34;;;;;;;4.75;1.77;;;7.10;94.50;;;;;;5050674;28;20071;-78
2021/11/28 12:03:12;;;;;;;3.70;1.50;;;7.20;94.40;;;;;;5051786;28;20457;-77
2021/11/28 12:05:40;;;;;;;9.38;2.53;;;7.20;94.40;;;;;;5050624;28;20065;-77
2021/11/28 12:08:19;;;;;;;6.22;1.98;;;7.10;94.40;;;;;;5051996;28;20061;-77
2021/11/28 12:11:03;;;;;;;6.53;2.15;;;7.10;94.50;;;;;;5050851;28;20059;-78
2021/11/28 12:13:29;;;;;;;8.68;2.78;;;7.20;94.50;;;;;;5051682;28;20151;-77
2021/11/28 12:16:04;;;;;;;7.90;2.20;;;7.20;94.50;;;;;;5051307;28;20464;-77
2021/11/28 12:18:37;;;;;;;5.25;2.03;;;7.20;94.50;;;;;;5051801;28;20410;-76
2021/11/28 12:21:13;;;;;;;4.55;1.95;;;7.20;94.50;;;;;;5051641;28;20499;-77
2021/11/28 12:23:59;;;;;;;4.93;2.05;;;7.30;94.50;;;;;;5050059;28;20036;-77
2021/11/28 12:26:25;;;;;;;8.77;2.50;;;7.30;94.60;;;;;;5049745;28;20028;-77
2021/11/28 12:28:53;;;;;;;6.03;2.50;;;7.30;94.60;;;;;;5051741;28;20043;-78
2021/11/28 12:31:34;;;;;;;3.83;1.77;;;7.30;94.50;;;;;;5049702;28;20119;-77
2021/11/28 12:34:10;;;;;;;5.00;1.92;;;7.40;94.50;;;;;;5051340;28;20162;-77
2021/11/28 12:36:50;;;;;;;6.95;2.05;;;7.30;94.40;;;;;;5051417;28;20017;-77
2021/11/28 12:39:25;;;;;;;8.18;2.75;;;7.30;94.40;;;;;;5051840;28;20159;-78
2021/11/28 12:41:56;;;;;;;6.72;2.45;;;7.30;94.50;;;;;;5051422;28;20120;-77
2021/11/28 12:44:32;;;;;;;6.78;2.33;;;7.30;94.50;;;;;;5050428;28;20017;-77
2021/11/28 12:46:59;;;;;;;7.93;2.40;;;7.30;94.60;;;;;;5049172;28;20447;-78
2021/11/28 12:49:44;;;;;;;7.13;2.97;;;7.30;94.60;;;;;;5049531;28;20032;-78
2021/11/28 12:52:25;;;;;;;6.65;2.75;;;7.40;94.70;;;;;;5050816;28;20096;-78
2021/11/28 12:55:03;;;;;;;7.00;2.88;;;7.50;94.80;;;;;;5051342;28;20376;-77
2021/11/28 12:57:46;;;;;;;6.03;2.80;;;7.70;94.80;;;;;;5050157;28;20191;-77
2021/11/28 13:00:17;;;;;;;8.57;3.85;;;7.80;94.70;;;;;;5035042;28;20033;-80
2021/11/28 13:02:47;;;;;;;10.13;3.90;;;7.90;94.60;;;;;;5049735;28;20028;-77
2021/11/28 13:05:28;;;;;;;10.23;4.10;;;8.10;94.70;;;;;;5048843;28;20043;-78
2021/11/28 13:08:00;;;;;;;9.90;3.85;;;8.10;94.50;;;;;;5050962;28;20029;-77
2021/11/28 13:10:37;;;;;;;10.43;4.10;;;8.10;94.30;;;;;;5051263;28;20028;-77
2021/11/28 13:13:11;;;;;;;9.95;4.53;;;8.00;94.20;;;;;;5051057;28;20020;-78